Time;durP1;ratioP1;P1;durP2;ratioP2;P2;SDS_P1;SDS_P2;PMS_P1;PMS_P2;Temp;Humidity;BMP_temperature;BMP_pressure;BME280_temperature;BME280_humidity;BME280_pressure;Samples;Min_cycle;Max_cycle;Signal;HPM_P1;HPM_P2
2022/07/18 00:01:55;;;;;;;41.17;17.75;;;;;;;22.00;69.55;93295.22;4787609;29;20043;-72
2022/07/18 00:04:21;;;;;;;29.38;17.77;;;;;;;21.98;69.90;93296.69;4797732;29;20047;-72
2022/07/18 00:06:47;;;;;;;33.90;17.80;;;;;;;21.94;70.05;93293.13;4785877;30;20031;-72
2022/07/18 00:09:12;;;;;;;25.55;17.38;;;;;;;21.93;70.07;93296.91;4770987;30;20398;-72
2022/07/18 00:11:38;;;;;;;27.92;18.17;;;;;;;21.92;69.93;93295.34;4770092;30;20051;-72
2022/07/18 00:14:04;;;;;;;30.38;18.77;;;;;;;21.90;70.22;93293.03;4789770;29;20562;-72
2022/07/18 00:16:29;;;;;;;41.80;20.60;;;;;;;21.88;70.49;93289.16;4792188;29;20114;-72
2022/07/18 00:18:57;;;;;;;29.15;18.77;;;;;;;21.85;70.54;93287.94;4770097;30;20406;-72
2022/07/18 00:21:22;;;;;;;28.85;17.73;;;;;;;21.85;70.52;93289.81;4769181;29;20062;-71
2022/07/18 00:23:48;;;;;;;29.38;18.27;;;;;;;21.83;70.42;93292.81;4785891;29;20039;-72
2022/07/18 00:26:14;;;;;;;39.47;18.08;;;;;;;21.81;70.47;93289.72;4785596;30;20108;-72
2022/07/18 00:28:39;;;;;;;37.15;19.70;;;;;;;21.79;70.59;93286.59;4785398;29;20125;-71
2022/07/18 00:31:05;;;;;;;30.00;19.30;;;;;;;21.75;70.58;93286.53;4785636;30;20047;-72
2022/07/18 00:33:30;;;;;;;30.73;19.00;;;;;;;21.74;70.19;93292.94;4784536;29;20035;-71
2022/07/18 00:35:56;;;;;;;28.85;18.00;;;;;;;21.73;70.31;93293.28;4770586;29;20055;-72
2022/07/18 00:38:21;;;;;;;35.30;18.83;;;;;;;21.72;70.52;93297.06;4779539;29;20138;-71
2022/07/18 00:40:47;;;;;;;28.08;19.05;;;;;;;21.69;70.60;93301.19;4769212;30;20399;-72
2022/07/18 00:43:14;;;;;;;36.72;18.75;;;;;;;21.68;70.68;93299.59;4785407;29;20129;-72
2022/07/18 00:45:48;;;;;;;26.52;18.30;;;;;;;21.65;70.98;93308.28;4782675;29;20522;-72
2022/07/18 00:48:14;;;;;;;32.03;17.75;;;;;;;21.61;71.30;93305.50;4784105;29;20042;-72
2022/07/18 00:50:41;;;;;;;32.33;18.67;;;;;;;21.59;71.42;93307.75;4784738;29;20035;-72
2022/07/18 00:53:07;;;;;;;31.25;18.75;;;;;;;21.56;71.39;93307.63;4768722;29;20058;-71
2022/07/18 00:55:34;;;;;;;41.88;20.27;;;;;;;21.56;71.22;93307.63;4785341;29;20055;-72
2022/07/18 00:58:00;;;;;;;35.55;18.80;;;;;;;21.56;71.16;93307.63;4754242;30;20053;-72
2022/07/18 01:03:10;;;;;;;34.80;20.25;;;;;;;21.58;71.40;93313.41;4786949;29;20046;-72
2022/07/18 01:05:35;;;;;;;32.45;20.63;;;;;;;21.59;71.32;93309.63;4782964;29;20038;-73
2022/07/18 01:08:02;;;;;;;39.22;20.83;;;;;;;21.62;71.01;93311.63;4774905;30;20038;-72
2022/07/18 01:10:27;;;;;;;38.55;21.10;;;;;;;21.65;70.84;93312.84;4785262;30;20054;-72
2022/07/18 01:12:53;;;;;;;37.13;21.73;;;;;;;21.70;70.73;93312.59;4788519;29;20027;-72
2022/07/18 01:15:19;;;;;;;35.88;20.58;;;;;;;21.72;70.66;93313.03;4752090;29;20047;-72
2022/07/18 01:17:44;;;;;;;41.30;21.35;;;;;;;21.72;71.11;93318.38;4784056;29;20138;-72
2022/07/18 01:20:10;;;;;;;30.90;19.55;;;;;;;21.71;70.86;93312.28;4769019;29;20404;-72
2022/07/18 01:22:38;;;;;;;35.85;20.73;;;;;;;21.72;70.88;93311.16;4784914;30;20430;-72
2022/07/18 01:25:05;;;;;;;39.88;21.63;;;;;;;21.73;70.93;93312.72;4785020;29;20050;-72
2022/07/18 01:27:31;;;;;;;36.22;20.88;;;;;;;21.73;70.57;93312.72;4784899;29;20041;-71
2022/07/18 01:29:56;;;;;;;44.90;20.80;;;;;;;21.74;70.63;93319.59;4785337;30;20054;-72
2022/07/18 01:32:22;;;;;;;39.42;20.75;;;;;;;21.78;70.13;93317.03;4785926;29;20035;-72
2022/07/18 01:34:49;;;;;;;37.78;20.83;;;;;;;21.80;69.97;93315.59;4771634;30;20631;-72
2022/07/18 01:37:15;;;;;;;30.52;19.65;;;;;;;21.81;70.02;93321.69;4772861;30;20047;-72
2022/07/18 01:39:42;;;;;;;33.10;19.95;;;;;;;21.81;70.02;93317.13;4772279;30;20387;-72
2022/07/18 01:42:10;;;;;;;34.38;20.00;;;;;;;21.82;69.85;93320.59;4772095;30;20078;-72
2022/07/18 01:44:37;;;;;;;33.88;21.00;;;;;;;21.82;69.64;93316.03;4787707;29;20039;-71
2022/07/18 01:47:05;;;;;;;39.85;19.35;;;;;;;21.82;69.88;93321.38;4788986;29;20043;-72
2022/07/18 01:49:31;;;;;;;42.55;21.20;;;;;;;21.81;69.75;93317.13;4790214;29;20061;-72
2022/07/18 01:51:58;;;;;;;38.72;21.27;;;;;;;21.78;69.86;93325.03;4796112;29;20051;-72
2022/07/18 01:54:26;;;;;;;42.20;20.70;;;;;;;21.73;70.09;93320.72;4788103;30;20043;-72
2022/07/18 01:56:52;;;;;;;35.45;18.75;;;;;;;21.72;69.95;93318.38;4771705;29;20795;-72
2022/07/18 01:59:18;;;;;;;36.00;20.20;;;;;;;21.72;69.99;93318.38;4800724;29;20035;-72
2022/07/18 02:01:45;;;;;;;36.65;20.67;;;;;;;21.69;70.51;93319.81;4803300;29;20039;-72
2022/07/18 02:04:10;;;;;;;37.33;21.55;;;;;;;21.69;69.98;93319.81;4786835;29;20070;-72
2022/07/18 02:06:36;;;;;;;41.30;20.50;;;;;;;21.68;70.23;93318.25;4785109;30;20070;-72
2022/07/18 02:09:03;;;;;;;33.95;20.10;;;;;;;21.68;69.93;93315.59;4788537;29;20047;-72
2022/07/18 02:11:28;;;;;;;40.03;19.95;;;;;;;21.68;69.62;93315.59;4787195;30;20047;-72
2022/07/18 02:13:54;;;;;;;32.67;19.60;;;;;;;21.67;69.15;93322.03;4787411;29;20058;-72
2022/07/18 02:16:19;;;;;;;31.98;17.75;;;;;;;21.66;68.95;93320.50;4787599;30;20039;-72
2022/07/18 02:18:45;;;;;;;33.95;18.17;;;;;;;21.65;68.46;93312.84;4793688;29;20047;-72
2022/07/18 02:21:13;;;;;;;35.00;18.42;;;;;;;21.62;68.15;93314.28;4786635;29;20741;-72
2022/07/18 02:23:40;;;;;;;32.65;17.58;;;;;;;21.61;68.34;93318.06;4778431;29;20122;-72
2022/07/18 02:26:06;;;;;;;32.95;18.67;;;;;;;21.58;68.21;93319.50;4793147;29;20050;-72
2022/07/18 02:28:31;;;;;;;35.45;18.05;;;;;;;21.57;68.61;93312.63;4787233;29;20049;-72
2022/07/18 02:30:57;;;;;;;30.85;18.25;;;;;;;21.55;68.34;93309.53;4794126;29;20031;-72
2022/07/18 02:33:22;;;;;;;31.70;18.10;;;;;;;21.55;68.26;93324.72;4800690;29;20154;-72
2022/07/18 02:35:48;;;;;;;30.60;17.33;;;;;;;21.54;68.06;93317.84;4805094;29;20042;-72
2022/07/18 02:38:14;;;;;;;35.00;17.80;;;;;;;21.54;68.20;93312.50;4794352;29;20108;-72
2022/07/18 02:40:39;;;;;;;35.13;17.50;;;;;;;21.56;67.35;93315.63;4788718;29;20050;-72
2022/07/18 02:43:05;;;;;;;31.05;16.90;;;;;;;21.57;66.84;93317.97;4804414;29;20567;-71
2022/07/18 02:45:31;;;;;;;34.65;17.00;;;;;;;21.57;67.26;93322.50;4790421;29;20042;-72
2022/07/18 02:47:56;;;;;;;34.40;17.33;;;;;;;21.57;67.78;93319.81;4771073;30;20931;-72
2022/07/18 02:50:22;;;;;;;36.80;17.10;;;;;;;21.57;68.33;93317.16;4760885;29;20035;-72
2022/07/18 02:52:50;;;;;;;30.73;18.33;;;;;;;21.55;69.10;93320.19;4801905;29;20034;-72
2022/07/18 02:55:15;;;;;;;36.00;18.23;;;;;;;21.53;69.59;93314.41;4790657;29;20047;-72
2022/07/18 02:57:42;;;;;;;37.08;17.40;;;;;;;21.52;69.38;93314.72;4786777;30;20074;-72
2022/07/18 03:00:11;;;;;;;30.70;17.90;;;;;;;21.50;69.44;93311.63;4790432;29;20568;-72
2022/07/18 03:02:37;;;;;;;28.45;17.23;;;;;;;21.48;69.69;93313.84;4787039;29;20042;-72
2022/07/18 03:05:04;;;;;;;33.75;17.95;;;;;;;21.47;69.89;93323.72;4779922;30;20122;-72
2022/07/18 03:07:30;;;;;;;27.30;17.50;;;;;;;21.46;69.50;93316.06;4785085;29;20027;-71
2022/07/18 03:09:55;;;;;;;35.17;17.45;;;;;;;21.46;69.07;93316.06;4785533;29;20502;-72
2022/07/18 03:12:21;;;;;;;28.63;17.05;;;;;;;21.47;68.75;93317.63;4787681;29;20051;-72
2022/07/18 03:14:47;;;;;;;31.58;17.05;;;;;;;21.47;68.59;93314.97;4785247;29;20039;-71
2022/07/18 03:17:12;;;;;;;34.28;18.05;;;;;;;21.48;68.75;93314.63;4804504;29;20034;-72
2022/07/18 03:19:38;;;;;;;28.25;16.42;;;;;;;21.50;68.00;93322.28;4788780;29;20080;-72
2022/07/18 03:22:04;;;;;;;29.58;16.88;;;;;;;21.49;67.85;93318.06;4786645;29;20059;-72
2022/07/18 03:24:30;;;;;;;30.48;17.17;;;;;;;21.48;68.38;93319.16;4786586;30;20069;-72
2022/07/18 03:26:56;;;;;;;28.60;16.23;;;;;;;21.48;68.38;93313.84;4788560;29;20046;-72
2022/07/18 03:29:21;;;;;;;31.65;16.83;;;;;;;21.47;67.95;93314.97;4785723;29;20157;-72
2022/07/18 03:31:47;;;;;;;31.52;16.05;;;;;;;21.45;68.68;93320.63;4786229;30;20583;-72
2022/07/18 03:34:13;;;;;;;25.60;16.00;;;;;;;21.44;69.01;93312.97;4772185;30;20050;-72
2022/07/18 03:36:39;;;;;;;27.20;16.85;;;;;;;21.42;69.25;93310.63;4770223;29;20054;-72
2022/07/18 03:39:06;;;;;;;24.17;15.55;;;;;;;21.40;69.33;93318.16;4778414;30;20039;-72
2022/07/18 03:41:32;;;;;;;35.97;16.08;;;;;;;21.38;69.78;93318.47;4770176;30;20101;-72
2022/07/18 03:43:58;;;;;;;31.48;16.27;;;;;;;21.37;69.76;93314.28;4770988;30;20047;-72
2022/07/18 03:46:24;;;;;;;32.05;15.90;;;;;;;21.36;70.20;93312.72;4786414;29;20032;-72
2022/07/18 03:48:50;;;;;;;30.30;17.48;;;;;;;21.36;69.86;93317.25;4755017;30;20057;-72
2022/07/18 03:51:16;;;;;;;36.30;17.00;;;;;;;21.35;70.14;93324.47;4786371;30;20631;-72
2022/07/18 03:53:41;;;;;;;34.88;17.20;;;;;;;21.32;70.36;93319.81;4770211;29;20047;-72
2022/07/18 03:56:07;;;;;;;32.55;18.30;;;;;;;21.32;70.25;93321.69;4787347;29;20078;-72
2022/07/18 03:58:33;;;;;;;27.58;16.02;;;;;;;21.32;69.64;93322.50;4782974;29;20106;-72
2022/07/18 04:00:59;;;;;;;25.35;16.58;;;;;;;21.33;69.19;93326.69;4799602;29;20072;-72
2022/07/18 04:03:24;;;;;;;33.50;16.25;;;;;;;21.34;69.29;93325.56;4791807;29;20051;-72
2022/07/18 04:05:51;;;;;;;27.73;15.98;;;;;;;21.35;68.24;93332.47;4785958;29;20054;-72
2022/07/18 04:08:16;;;;;;;28.63;15.27;;;;;;;21.37;67.69;93332.91;4769566;30;20042;-72
2022/07/18 04:10:43;;;;;;;29.92;15.07;;;;;;;21.39;66.97;93333.38;4795453;29;20529;-71
2022/07/18 04:13:09;;;;;;;27.48;14.98;;;;;;;21.41;66.53;93336.50;4803756;29;20568;-72
2022/07/18 04:15:36;;;;;;;25.33;14.43;;;;;;;21.44;66.24;93334.28;4777188;29;20031;-72
2022/07/18 04:18:02;;;;;;;23.77;14.23;;;;;;;21.45;66.29;93336.59;4786465;29;20131;-72
2022/07/18 04:20:28;;;;;;;26.58;14.80;;;;;;;21.46;65.86;93332.84;4797507;29;20059;-72
2022/07/18 04:22:59;;;;;;;27.30;14.60;;;;;;;21.51;66.08;93334.50;4795298;29;20104;-72
2022/07/18 04:25:27;;;;;;;24.55;14.25;;;;;;;21.53;65.57;93335.72;4788495;29;20047;-72
2022/07/18 04:27:54;;;;;;;23.73;14.45;;;;;;;21.55;65.27;93340.72;4793036;29;20035;-72
2022/07/18 04:30:22;;;;;;;30.35;14.13;;;;;;;21.56;65.02;93331.59;4793011;29;20138;-72
2022/07/18 04:32:48;;;;;;;31.13;14.98;;;;;;;21.58;66.09;93332.81;4788434;29;20510;-73
2022/07/18 04:35:14;;;;;;;28.17;15.80;;;;;;;21.58;66.38;93332.81;4786766;29;20125;-72
2022/07/18 04:37:41;;;;;;;30.77;15.93;;;;;;;21.59;66.67;93330.94;4798808;29;20113;-74
2022/07/18 04:40:08;;;;;;;27.83;14.85;;;;;;;21.61;66.56;93326.03;4786212;29;20057;-73
2022/07/18 04:42:35;;;;;;;23.25;14.30;;;;;;;21.62;66.37;93330.28;4776575;29;20349;-74
2022/07/18 04:45:01;;;;;;;25.85;14.73;;;;;;;21.67;65.76;93332.72;4787830;29;20368;-72
2022/07/18 04:47:27;;;;;;;22.95;14.25;;;;;;;21.69;65.48;93343.81;4791093;29;20077;-72
2022/07/18 04:49:53;;;;;;;27.35;13.38;;;;;;;21.73;65.10;93343.91;4792688;29;20035;-72
2022/07/18 04:52:19;;;;;;;25.83;13.88;;;;;;;21.76;64.88;93340.59;4768520;29;20570;-74
2022/07/18 04:54:45;;;;;;;28.40;13.77;;;;;;;21.78;64.64;93341.78;4790646;29;20047;-73
2022/07/18 04:57:11;;;;;;;24.48;13.57;;;;;;;21.78;64.66;93339.13;4786401;29;20046;-73
2022/07/18 04:59:38;;;;;;;22.77;13.48;;;;;;;21.84;64.92;93347.66;4784730;29;20073;-76
2022/07/18 05:02:04;;;;;;;27.00;14.52;;;;;;;21.86;64.45;93350.78;4788258;29;20039;-77
2022/07/18 05:04:30;;;;;;;29.85;13.63;;;;;;;21.87;64.73;93343.56;4788716;29;20043;-75
2022/07/18 05:06:56;;;;;;;32.25;15.25;;;;;;;21.94;64.85;93346.44;4776439;29;20171;-75
2022/07/18 05:09:21;;;;;;;37.08;16.23;;;;;;;21.94;65.50;93341.88;4797461;29;20460;-75
2022/07/18 05:11:47;;;;;;;32.38;17.00;;;;;;;22.03;67.01;93349.75;4779976;29;20054;-75
2022/07/18 05:14:12;;;;;;;42.40;16.88;;;;;;;22.04;67.56;93351.28;4783699;29;20529;-75
2022/07/18 05:16:38;;;;;;;29.92;15.63;;;;;;;22.01;66.78;93346.66;4792286;29;20055;-76
2022/07/18 05:19:03;;;;;;;29.48;17.05;;;;;;;22.01;67.26;93346.66;4788171;29;20118;-75
2022/07/18 05:21:30;;;;;;;31.05;18.90;;;;;;;22.00;67.29;93345.88;4798061;29;20055;-76
2022/07/18 05:23:56;;;;;;;30.38;18.00;;;;;;;22.00;67.82;93345.88;4796557;29;20039;-75
2022/07/18 05:26:22;;;;;;;25.88;15.00;;;;;;;22.04;68.99;93346.75;4782376;29;20041;-76
2022/07/18 05:28:47;;;;;;;32.17;15.65;;;;;;;22.10;69.00;93347.28;4779079;29;20130;-76
2022/07/18 05:31:13;;;;;;;30.17;15.18;;;;;;;22.11;68.36;93346.19;4762720;29;20050;-76
2022/07/18 05:33:38;;;;;;;31.30;15.30;;;;;;;22.09;68.57;93348.41;4784368;29;20039;-76
2022/07/18 05:36:05;;;;;;;26.10;15.70;;;;;;;22.04;68.53;93346.75;4800884;29;20039;-75
2022/07/18 05:38:31;;;;;;;31.17;17.33;;;;;;;22.11;68.88;93350.72;4790284;29;20095;-75
2022/07/18 05:40:57;;;;;;;26.65;16.50;;;;;;;22.16;68.67;93353.19;4774993;29;20125;-75
2022/07/18 05:43:22;;;;;;;28.85;15.82;;;;;;;22.14;68.53;93358.84;4790153;29;20062;-75
2022/07/18 05:45:48;;;;;;;31.10;16.67;;;;;;;22.14;69.53;93361.50;4773658;29;20093;-76
2022/07/18 05:48:13;;;;;;;31.58;16.95;;;;;;;22.16;69.83;93353.94;4775590;30;20130;-75
2022/07/18 05:50:39;;;;;;;31.45;17.15;;;;;;;22.16;70.09;93356.63;4757513;30;20082;-75
2022/07/18 05:53:05;;;;;;;36.40;19.25;;;;;;;22.19;69.23;93353.25;4771791;30;20055;-75
2022/07/18 05:55:30;;;;;;;32.97;18.05;;;;;;;22.27;68.52;93354.28;4763299;29;20031;-75
2022/07/18 05:57:56;;;;;;;35.47;18.77;;;;;;;22.54;68.06;93351.94;4793495;29;20050;-75
2022/07/18 06:00:22;;;;;;;52.40;18.88;;;;;;;22.70;67.87;93349.31;4789914;29;20038;-75
2022/07/18 06:02:49;;;;;;;36.47;18.85;;;;;;;22.91;66.76;93349.91;4763436;29;20130;-75
2022/07/18 06:05:15;;;;;;;35.33;19.65;;;;;;;23.39;64.47;93357.97;4789052;29;20039;-76
2022/07/18 06:07:40;;;;;;;38.28;17.45;;;;;;;23.38;63.09;93356.44;4788609;29;20035;-77
2022/07/18 06:10:06;;;;;;;32.92;17.88;;;;;;;23.37;64.12;93355.66;4776842;29;20043;-75
2022/07/18 06:12:32;;;;;;;34.58;17.38;;;;;;;23.43;62.50;93354.25;4788518;29;20047;-77
2022/07/18 06:14:58;;;;;;;45.63;18.90;;;;;;;23.42;62.55;93350.06;4788459;30;20032;-78
2022/07/18 06:17:24;;;;;;;35.13;20.02;;;;;;;23.42;64.07;93352.72;4774729;30;20417;-78
2022/07/18 06:19:50;;;;;;;40.58;20.00;;;;;;;23.54;64.27;93346.50;4772890;30;20047;-77
2022/07/18 06:22:16;;;;;;;35.40;20.75;;;;;;;23.80;63.25;93359.34;4757680;29;20065;-76
2022/07/18 06:24:41;;;;;;;33.20;19.42;;;;;;;23.99;62.44;93353.25;4798856;29;20067;-77
2022/07/18 06:27:07;;;;;;;33.55;18.25;;;;;;;24.42;61.46;93350.72;4790481;29;20047;-75
2022/07/18 06:29:33;;;;;;;30.67;18.17;;;;;;;24.79;60.91;93345.72;4794381;29;20051;-78
2022/07/18 06:31:58;;;;;;;36.30;18.83;;;;;;;24.67;60.40;93360.03;4809452;29;20046;-77
2022/07/18 06:34:24;;;;;;;33.00;19.40;;;;;;;24.67;61.52;93359.25;4772361;30;20448;-78
2022/07/18 06:36:49;;;;;;;40.03;21.10;;;;;;;24.12;62.10;93355.84;4776178;29;20074;-76
2022/07/18 06:39:18;;;;;;;36.08;18.60;;;;;;;24.07;61.49;93356.84;4770678;29;20047;-78
2022/07/18 06:41:44;;;;;;;36.17;20.23;;;;;;;23.72;63.40;93362.94;4775069;30;20065;-79
2022/07/18 06:44:13;;;;;;;38.45;18.83;;;;;;;23.51;63.19;93360.56;4774514;29;20123;-78
2022/07/18 06:46:39;;;;;;;32.03;19.10;;;;;;;23.51;63.53;93359.75;4807373;29;20065;-78
2022/07/18 06:49:05;;;;;;;37.47;19.77;;;;;;;23.51;63.04;93360.56;4784293;29;20051;-78
2022/07/18 06:51:31;;;;;;;35.47;20.05;;;;;;;23.43;63.24;93356.94;4775244;29;20047;-78
2022/07/18 06:53:56;;;;;;;35.33;18.40;;;;;;;23.69;62.21;93358.31;4787655;30;20636;-78
2022/07/18 06:56:22;;;;;;;31.75;19.45;;;;;;;23.67;62.94;93363.22;4789748;30;20510;-79
2022/07/18 06:58:51;;;;;;;39.20;18.95;;;;;;;23.74;62.95;93362.59;4775652;29;20474;-77
2022/07/18 07:01:17;;;;;;;29.75;18.48;;;;;;;23.90;63.30;93364.16;4792105;29;20043;-77
2022/07/18 07:03:44;;;;;;;28.02;17.02;;;;;;;24.15;62.28;93361.25;4785493;29;20049;-77
2022/07/18 07:06:09;;;;;;;37.17;17.20;;;;;;;24.60;59.92;93361.78;4805238;29;20037;-80
2022/07/18 07:08:35;;;;;;;30.77;16.98;;;;;;;24.82;58.59;93355.72;4791766;29;20039;-78
2022/07/18 07:11:01;;;;;;;35.08;18.45;;;;;;;25.17;53.88;93354.03;4791097;29;20051;-78
2022/07/18 07:13:28;;;;;;;33.83;18.08;;;;;;;25.31;54.11;93354.31;4807127;29;20043;-78
2022/07/18 07:15:53;;;;;;;38.38;18.40;;;;;;;25.63;53.84;93357.50;4807139;29;20066;-78
2022/07/18 07:18:20;;;;;;;30.35;17.42;;;;;;;25.87;53.31;93353.69;4790120;29;20062;-78
2022/07/18 07:20:46;;;;;;;32.10;18.77;;;;;;;25.95;52.04;93355.31;4797200;29;20118;-78
2022/07/18 07:23:12;;;;;;;31.65;17.67;;;;;;;26.07;50.72;93356.25;4788443;30;20541;-77
2022/07/18 07:25:38;;;;;;;32.58;17.38;;;;;;;25.95;51.78;93358.00;4773069;30;20043;-77
2022/07/18 07:28:05;;;;;;;52.05;21.88;;;;;;;25.81;59.77;93351.66;4789004;30;20557;-78
2022/07/18 07:30:32;;;;;;;46.28;23.65;;;;;;;25.60;62.13;93350.19;4772547;30;20043;-78
2022/07/18 07:32:59;;;;;;;40.97;23.15;;;;;;;25.29;61.86;93351.22;4788168;30;20035;-78
2022/07/18 07:35:25;;;;;;;37.13;23.48;;;;;;;25.17;62.77;93354.03;4788902;30;20035;-78
2022/07/18 07:37:53;;;;;;;38.08;21.80;;;;;;;25.33;62.09;93352.03;4773073;30;20114;-77
2022/07/18 07:40:20;;;;;;;38.33;22.75;;;;;;;25.25;61.47;93350.38;4777417;29;20549;-77
2022/07/18 07:42:46;;;;;;;32.40;21.15;;;;;;;25.40;61.85;93346.81;4788558;29;20019;-77
2022/07/18 07:45:13;;;;;;;35.25;20.17;;;;;;;25.45;58.45;93351.88;4804400;29;20051;-77
2022/07/18 07:47:40;;;;;;;31.45;19.70;;;;;;;25.33;58.62;93349.34;4804526;29;20402;-77
2022/07/18 07:50:07;;;;;;;31.77;17.92;;;;;;;25.49;57.46;93343.88;4802642;29;20039;-77
2022/07/18 07:52:33;;;;;;;33.00;18.92;;;;;;;25.65;57.99;93338.38;4770973;30;20043;-77
2022/07/18 07:54:59;;;;;;;46.42;20.10;;;;;;;25.76;58.38;93339.31;4755648;30;20039;-77
2022/07/18 07:57:25;;;;;;;33.33;20.52;;;;;;;25.93;58.92;93341.50;4786155;30;20051;-77
2022/07/18 07:59:52;;;;;;;44.53;19.38;;;;;;;25.93;58.60;93335.34;4770335;30;20043;-76
2022/07/18 08:02:18;;;;;;;36.92;19.33;;;;;;;25.89;57.71;93337.97;4767621;30;20058;-77
2022/07/18 08:04:44;;;;;;;34.50;19.25;;;;;;;26.05;56.68;93339.72;4786475;30;20031;-77
2022/07/18 08:07:09;;;;;;;34.05;19.33;;;;;;;26.08;56.15;93345.16;4786006;30;20462;-77
2022/07/18 08:09:35;;;;;;;37.40;18.80;;;;;;;26.14;55.20;93340.22;4786370;30;20129;-77
2022/07/18 08:12:00;;;;;;;36.47;18.17;;;;;;;25.82;56.18;93343.22;4787275;29;20104;-77
2022/07/18 08:14:26;;;;;;;32.47;18.02;;;;;;;26.05;56.11;93337.06;4785947;30;20043;-76
2022/07/18 08:16:52;;;;;;;26.83;17.92;;;;;;;26.28;54.43;93334.31;4786070;30;20107;-77
2022/07/18 08:19:17;;;;;;;32.70;18.55;;;;;;;26.22;54.56;93336.50;4770685;30;20130;-77
2022/07/18 08:21:43;;;;;;;25.55;16.95;;;;;;;26.46;54.37;93335.28;4759427;30;20104;-77
2022/07/18 08:24:08;;;;;;;35.55;19.70;;;;;;;26.58;50.92;93332.38;4756405;30;20047;-77
2022/07/18 08:26:35;;;;;;;35.42;20.25;;;;;;;26.75;49.01;93336.41;4778211;30;20044;-77
2022/07/18 08:29:02;;;;;;;34.40;18.13;;;;;;;26.96;48.03;93329.72;4775586;30;20065;-77
2022/07/18 08:31:28;;;;;;;31.65;16.90;;;;;;;27.09;48.69;93332.88;4785849;30;20442;-77
2022/07/18 08:33:54;;;;;;;31.73;18.77;;;;;;;27.22;47.73;93333.44;4783371;30;20043;-77
2022/07/18 08:36:20;;;;;;;31.20;17.48;;;;;;;27.29;47.83;93336.97;4769470;30;20418;-77
2022/07/18 08:38:46;;;;;;;33.63;17.90;;;;;;;27.29;48.78;93320.84;4755120;30;20042;-77
2022/07/18 08:41:12;;;;;;;37.30;18.65;;;;;;;27.39;48.17;93330.13;4770008;30;20047;-77
2022/07/18 08:43:38;;;;;;;35.72;19.50;;;;;;;27.50;47.17;93328.31;4763150;30;20128;-77
2022/07/18 08:46:05;;;;;;;34.70;19.35;;;;;;;27.54;46.91;93331.03;4776200;30;20085;-78
2022/07/18 08:48:32;;;;;;;33.78;20.20;;;;;;;27.56;46.34;93329.50;4759621;30;20036;-80
2022/07/18 08:50:59;;;;;;;40.70;20.80;;;;;;;27.48;46.19;93325.22;4785793;30;20063;-78
2022/07/18 08:53:26;;;;;;;36.25;21.55;;;;;;;27.41;46.15;93327.84;4753445;30;20046;-78
2022/07/18 08:55:51;;;;;;;40.60;20.23;;;;;;;27.48;48.34;93327.13;4754006;30;20040;-78
2022/07/18 08:58:17;;;;;;;40.65;20.92;;;;;;;27.60;48.29;93327.59;4773320;30;20040;-77
2022/07/18 09:00:46;;;;;;;34.17;19.45;;;;;;;27.50;49.08;93317.53;4772891;30;20043;-77
2022/07/18 09:03:13;;;;;;;39.10;19.90;;;;;;;27.15;49.32;93320.66;4754242;30;20047;-77
2022/07/18 09:05:41;;;;;;;37.08;19.52;;;;;;;26.77;50.38;93320.72;4755587;30;20114;-77
2022/07/18 09:08:19;;;;;;;36.65;19.45;;;;;;;26.58;51.39;93321.63;4758219;30;20082;-77
2022/07/18 09:10:50;;;;;;;35.85;18.70;;;;;;;26.95;51.42;93317.41;4772246;30;20054;-79
2022/07/18 09:13:16;;;;;;;32.03;17.90;;;;;;;26.96;50.79;93313.59;4764378;30;20036;-77
2022/07/18 09:16:04;;;;;;;35.72;19.67;;;;;;;27.11;50.12;93315.28;4757464;30;20043;-78
2022/07/18 09:18:32;;;;;;;38.05;19.20;;;;;;;27.27;50.27;93322.34;4756716;30;20044;-78
2022/07/18 09:21:04;;;;;;;42.25;19.55;;;;;;;27.59;50.02;93318.00;4766352;29;20055;-79
2022/07/18 09:23:31;;;;;;;40.88;19.55;;;;;;;27.65;48.48;93318.44;4761820;30;20074;-79
2022/07/18 09:25:59;;;;;;;39.05;19.88;;;;;;;27.80;47.12;93316.59;4742642;30;20048;-79
2022/07/18 09:28:26;;;;;;;32.20;18.52;;;;;;;28.10;47.39;93319.13;4763678;30;20451;-78
2022/07/18 09:30:52;;;;;;;33.92;19.33;;;;;;;28.11;47.88;93319.88;4758629;30;20419;-78
2022/07/18 09:33:20;;;;;;;37.75;18.85;;;;;;;28.00;47.24;93320.59;4753752;30;20039;-77
2022/07/18 09:35:52;;;;;;;32.40;20.42;;;;;;;28.11;45.12;93314.50;4769163;30;20099;-78
2022/07/18 09:38:20;;;;;;;;;;;;;;;28.08;46.79;93313.34;4757503;30;20035;-80
2022/07/18 09:40:51;;;;;;;38.60;19.70;;;;;;;28.01;46.84;93314.06;4753185;30;20004;-78
2022/07/18 09:43:20;;;;;;;37.03;19.53;;;;;;;28.16;46.55;93311.44;4776297;30;20123;-78
2022/07/18 09:45:51;;;;;;;37.55;20.02;;;;;;;28.25;47.29;93314.56;4790379;29;20563;-78
2022/07/18 09:48:19;;;;;;;35.53;20.08;;;;;;;28.19;47.80;93316.88;4764452;30;20104;-78
2022/07/18 09:50:58;;;;;;;37.95;20.27;;;;;;;28.48;47.79;93305.47;4781690;30;20035;-79
2022/07/18 09:53:26;;;;;;;33.67;20.20;;;;;;;28.45;46.81;93310.41;4768333;30;20049;-75
2022/07/18 09:55:59;;;;;;;36.15;19.20;;;;;;;28.23;47.33;93316.88;4755270;30;20043;-78
2022/07/18 09:58:33;;;;;;;33.10;19.25;;;;;;;27.91;47.36;93309.38;4759399;30;20051;-76
2022/07/18 10:01:03;;;;;;;38.25;20.33;;;;;;;28.27;48.33;93311.50;4772506;30;20451;-78
2022/07/18 10:03:33;;;;;;;36.38;20.75;;;;;;;28.37;47.58;93311.56;4789549;30;20035;-77
2022/07/18 10:05:59;;;;;;;36.30;20.83;;;;;;;28.16;46.92;93306.06;4789729;30;20070;-78
2022/07/18 10:08:31;;;;;;;28.38;19.02;;;;;;;27.83;48.03;93313.16;4772517;30;20057;-77
2022/07/18 10:10:59;;;;;;;;;;;;;;;28.06;47.91;93318.31;4788878;30;20556;-77
2022/07/18 10:13:27;;;;;;;33.33;20.60;;;;;;;28.01;47.78;93305.22;4777327;30;19944;-78
2022/07/18 10:15:52;;;;;;;32.33;20.27;;;;;;;28.09;47.15;93319.50;4778479;30;20032;-79
2022/07/18 10:18:24;;;;;;;29.05;17.88;;;;;;;27.66;46.95;93311.13;4780994;30;20039;-79
2022/07/18 10:21:03;;;;;;;36.80;20.45;;;;;;;27.72;48.56;93298.84;4764897;30;20051;-78
2022/07/18 10:23:34;;;;;;;36.70;18.70;;;;;;;27.02;48.76;93304.06;4774185;30;20071;-78
2022/07/18 10:26:14;;;;;;;43.35;21.13;;;;;;;27.53;48.43;93308.72;4773212;30;20044;-79
2022/07/18 10:28:55;;;;;;;33.08;20.70;;;;;;;27.65;48.21;93305.00;4787889;30;20058;-79
2022/07/18 10:31:38;;;;;;;52.00;21.42;;;;;;;27.53;47.96;93306.03;4782934;30;20101;-78
2022/07/18 10:34:07;;;;;;;33.90;20.25;;;;;;;27.61;48.00;93302.25;4774381;30;20070;-80
2022/07/18 10:36:38;;;;;;;36.53;19.83;;;;;;;27.55;47.88;93302.97;4759536;30;20039;-78
2022/07/18 10:39:10;;;;;;;33.03;20.27;;;;;;;27.54;47.34;93302.22;4773639;30;20060;-79
2022/07/18 10:41:39;;;;;;;33.30;19.25;;;;;;;27.86;46.61;93298.22;4775877;30;20037;-78
2022/07/18 10:44:23;;;;;;;32.60;20.30;;;;;;;27.81;47.31;93293.94;4785099;29;20043;-80
2022/07/18 10:49:48;;;;;;;38.58;20.20;;;;;;;28.11;47.65;93304.50;4773413;30;20047;-78
2022/07/18 10:52:25;;;;;;;33.88;20.17;;;;;;;28.10;46.64;93286.84;4774370;30;20042;-79
2022/07/18 10:55:17;;;;;;;38.88;19.17;;;;;;;28.12;45.91;93294.50;4773319;30;20043;-78
2022/07/18 10:58:05;;;;;;;32.17;20.63;;;;;;;28.02;46.61;93288.69;4785455;30;20043;-78
2022/07/18 11:00:36;;;;;;;38.47;19.52;;;;;;;28.20;46.88;93282.63;4774118;30;20082;-78
2022/07/18 11:03:08;;;;;;;30.17;19.88;;;;;;;27.87;46.15;93278.25;4762817;30;20040;-78
2022/07/18 11:05:36;;;;;;;31.70;19.20;;;;;;;28.05;46.65;93279.09;4771232;30;20036;-78
2022/07/18 11:08:02;;;;;;;37.38;20.25;;;;;;;28.08;46.51;93272.19;4772448;30;20091;-79
2022/07/18 11:13:32;;;;;;;37.08;20.50;;;;;;;27.84;46.05;93277.06;4757334;30;20051;-78
2022/07/18 11:16:02;;;;;;;41.63;21.02;;;;;;;27.91;45.71;93279.03;4783830;30;20039;-79
2022/07/18 11:18:30;;;;;;;40.63;19.10;;;;;;;27.89;45.07;93271.34;4755444;30;20047;-78
2022/07/18 11:20:56;;;;;;;26.75;16.95;;;;;;;27.99;45.67;93275.25;4777562;30;20066;-78
2022/07/18 11:23:24;;;;;;;42.03;19.65;;;;;;;27.89;45.68;93274.03;4773355;30;20061;-77
2022/07/18 11:25:54;;;;;;;35.35;20.75;;;;;;;28.02;46.43;93263.72;4773135;30;20532;-79